sensor_id;sensor_type;location;lat;lon;timestamp;pressure;altitude;pressure_sealevel;temperature;humidity
62544;BME280;48597;49.030;1.822;2022-10-31T00:01:54;101288.16;;;20.32;55.27
62544;BME280;48597;49.030;1.822;2022-10-31T00:04:19;101285.59;;;20.30;55.23
62544;BME280;48597;49.030;1.822;2022-10-31T00:06:44;101290.09;;;20.30;55.23
62544;BME280;48597;49.030;1.822;2022-10-31T00:09:10;101284.75;;;20.30;55.19
62544;BME280;48597;49.030;1.822;2022-10-31T00:11:36;101289.25;;;20.29;55.19
62544;BME280;48597;49.030;1.822;2022-10-31T00:14:01;101289.25;;;20.29;55.12
62544;BME280;48597;49.030;1.822;2022-10-31T00:16:28;101295.59;;;20.28;55.25
62544;BME280;48597;49.030;1.822;2022-10-31T00:18:55;101296.44;;;20.29;55.11
62544;BME280;48597;49.030;1.822;2022-10-31T00:21:22;101295.59;;;20.28;55.06
62544;BME280;48597;49.030;1.822;2022-10-31T00:23:47;101292.09;;;20.28;55.06
62544;BME280;48597;49.030;1.822;2022-10-31T00:26:13;101290.38;;;20.27;55.06
62544;BME280;48597;49.030;1.822;2022-10-31T00:28:39;101293.91;;;20.27;55.11
62544;BME280;48597;49.030;1.822;2022-10-31T00:31:07;101289.41;;;20.28;55.23
62544;BME280;48597;49.030;1.822;2022-10-31T00:33:35;101294.88;;;20.26;55.09
62544;BME280;48597;49.030;1.822;2022-10-31T00:36:02;101295.88;;;20.25;55.20
62544;BME280;48597;49.030;1.822;2022-10-31T00:38:27;101299.41;;;20.26;55.01
62544;BME280;48597;49.030;1.822;2022-10-31T00:40:52;101300.38;;;20.25;54.87
62544;BME280;48597;49.030;1.822;2022-10-31T00:43:18;101303.06;;;20.25;55.24
62544;BME280;48597;49.030;1.822;2022-10-31T00:45:43;101304.91;;;20.24;54.91
62544;BME280;48597;49.030;1.822;2022-10-31T00:48:09;101302.22;;;20.24;54.83
62544;BME280;48597;49.030;1.822;2022-10-31T00:50:35;101290.66;;;20.24;55.06
62544;BME280;48597;49.030;1.822;2022-10-31T00:53:01;101287.16;;;20.23;54.85
62544;BME280;48597;49.030;1.822;2022-10-31T00:55:26;101282.63;;;20.24;54.85
62544;BME280;48597;49.030;1.822;2022-10-31T00:57:52;101279.13;;;20.23;54.71
62544;BME280;48597;49.030;1.822;2022-10-31T01:00:17;101280.13;;;20.22;54.92
62544;BME280;48597;49.030;1.822;2022-10-31T01:02:43;101275.63;;;20.23;55.02
62544;BME280;48597;49.030;1.822;2022-10-31T01:05:08;101266.75;;;20.22;54.81
62544;BME280;48597;49.030;1.822;2022-10-31T01:07:40;101264.09;;;20.22;54.95
62544;BME280;48597;49.030;1.822;2022-10-31T01:10:07;101256.34;;;20.19;54.90
62544;BME280;48597;49.030;1.822;2022-10-31T01:12:50;101267.75;;;20.21;54.95
62544;BME280;48597;49.030;1.822;2022-10-31T01:15:18;101262.53;;;20.20;54.96
62544;BME280;48597;49.030;1.822;2022-10-31T01:17:44;101266.91;;;20.21;54.71
62544;BME280;48597;49.030;1.822;2022-10-31T01:20:11;101266.06;;;20.20;54.74
62544;BME280;48597;49.030;1.822;2022-10-31T01:22:37;101261.69;;;20.19;54.87
62544;BME280;48597;49.030;1.822;2022-10-31T01:25:03;101268.03;;;20.18;54.88
62544;BME280;48597;49.030;1.822;2022-10-31T01:27:28;101269.88;;;20.18;54.79
62544;BME280;48597;49.030;1.822;2022-10-31T01:29:54;101268.03;;;20.18;54.83
62544;BME280;48597;49.030;1.822;2022-10-31T01:32:19;101262.69;;;20.18;54.75
62544;BME280;48597;49.030;1.822;2022-10-31T01:34:45;101257.34;;;20.18;54.79
62544;BME280;48597;49.030;1.822;2022-10-31T01:37:10;101245.97;;;20.16;54.71
62544;BME280;48597;49.030;1.822;2022-10-31T01:39:35;101247.66;;;20.17;54.82
62544;BME280;48597;49.030;1.822;2022-10-31T01:42:01;101252.16;;;20.17;54.63
62544;BME280;48597;49.030;1.822;2022-10-31T01:47:17;101256.66;;;20.16;54.70
62544;BME280;48597;49.030;1.822;2022-10-31T01:49:53;101254.94;;;20.15;54.65
62544;BME280;48597;49.030;1.822;2022-10-31T01:52:47;101255.94;;;20.14;54.76
62544;BME280;48597;49.030;1.822;2022-10-31T01:55:20;101247.94;;;20.14;54.79
62544;BME280;48597;49.030;1.822;2022-10-31T01:57:50;101238.91;;;20.15;54.56
62544;BME280;48597;49.030;1.822;2022-10-31T02:00:17;101233.72;;;20.14;54.54
62544;BME280;48597;49.030;1.822;2022-10-31T02:02:45;101239.06;;;20.14;54.52
62544;BME280;48597;49.030;1.822;2022-10-31T02:05:15;101232.88;;;20.13;54.64
62544;BME280;48597;49.030;1.822;2022-10-31T02:07:55;101233.84;;;20.12;54.51
62544;BME280;48597;49.030;1.822;2022-10-31T02:10:23;101244.69;;;20.10;54.57
62544;BME280;48597;49.030;1.822;2022-10-31T02:12:51;101239.19;;;20.12;54.36
62544;BME280;48597;49.030;1.822;2022-10-31T02:15:19;101235.69;;;20.11;54.51
62544;BME280;48597;49.030;1.822;2022-10-31T02:17:44;101248.19;;;20.11;54.37
62544;BME280;48597;49.030;1.822;2022-10-31T02:28:34;101226.97;;;20.09;54.29
62544;BME280;48597;49.030;1.822;2022-10-31T02:33:58;101216.28;;;20.09;54.44
62544;BME280;48597;49.030;1.822;2022-10-31T02:36:36;101206.59;;;20.08;54.45
62544;BME280;48597;49.030;1.822;2022-10-31T02:39:14;101212.78;;;20.09;54.28
62544;BME280;48597;49.030;1.822;2022-10-31T02:41:52;101209.41;;;20.07;54.45
62544;BME280;48597;49.030;1.822;2022-10-31T02:44:39;101210.22;;;20.07;54.42
62544;BME280;48597;49.030;1.822;2022-10-31T02:47:16;101196.03;;;20.07;54.47
62544;BME280;48597;49.030;1.822;2022-10-31T02:52:20;101205.03;;;20.06;54.35
62544;BME280;48597;49.030;1.822;2022-10-31T02:54:47;101195.19;;;20.06;54.46
62544;BME280;48597;49.030;1.822;2022-10-31T02:57:15;101203.22;;;20.06;54.40
62544;BME280;48597;49.030;1.822;2022-10-31T02:59:47;101188.19;;;20.05;54.39
62544;BME280;48597;49.030;1.822;2022-10-31T03:02:42;101186.34;;;20.06;54.30
62544;BME280;48597;49.030;1.822;2022-10-31T03:05:22;101181.16;;;20.04;54.41
62544;BME280;48597;49.030;1.822;2022-10-31T03:08:01;101173.97;;;20.05;54.35
62544;BME280;48597;49.030;1.822;2022-10-31T03:13:17;101160.63;;;20.05;54.47
62544;BME280;48597;49.030;1.822;2022-10-31T03:15:50;101154.44;;;20.04;54.25
62544;BME280;48597;49.030;1.822;2022-10-31T03:18:38;101150.06;;;20.03;54.12
62544;BME280;48597;49.030;1.822;2022-10-31T03:21:10;101147.38;;;20.03;54.43
62544;BME280;48597;49.030;1.822;2022-10-31T03:23:39;101149.22;;;20.03;54.24
62544;BME280;48597;49.030;1.822;2022-10-31T03:26:07;101150.06;;;20.03;54.20
62544;BME280;48597;49.030;1.822;2022-10-31T03:28:37;101150.91;;;20.04;54.20
62544;BME280;48597;49.030;1.822;2022-10-31T03:31:05;101155.56;;;20.02;54.15
62544;BME280;48597;49.030;1.822;2022-10-31T03:33:34;101136.84;;;20.02;54.14
62544;BME280;48597;49.030;1.822;2022-10-31T03:36:04;101137.69;;;20.02;54.15
62544;BME280;48597;49.030;1.822;2022-10-31T03:38:32;101124.50;;;20.01;54.30
62544;BME280;48597;49.030;1.822;2022-10-31T03:40:59;101125.19;;;20.03;54.15
62544;BME280;48597;49.030;1.822;2022-10-31T03:43:30;101123.50;;;20.02;54.16
62544;BME280;48597;49.030;1.822;2022-10-31T03:45:57;101120.84;;;20.02;54.08
62544;BME280;48597;49.030;1.822;2022-10-31T03:48:24;101119.16;;;20.01;54.19
62544;BME280;48597;49.030;1.822;2022-10-31T03:51:05;101120.84;;;20.02;54.04
62544;BME280;48597;49.030;1.822;2022-10-31T03:53:51;101124.50;;;20.01;54.04
62544;BME280;48597;49.030;1.822;2022-10-31T03:56:24;101120.13;;;20.00;54.03
62544;BME280;48597;49.030;1.822;2022-10-31T03:59:36;101119.16;;;20.01;54.21
62544;BME280;48597;49.030;1.822;2022-10-31T04:02:07;101113.81;;;20.01;54.01
62544;BME280;48597;49.030;1.822;2022-10-31T04:04:34;101115.66;;;20.00;53.98
62544;BME280;48597;49.030;1.822;2022-10-31T04:07:01;101113.81;;;20.01;54.06
62544;BME280;48597;49.030;1.822;2022-10-31T04:09:28;101112.97;;;20.00;53.98
62544;BME280;48597;49.030;1.822;2022-10-31T04:11:58;101109.59;;;19.98;54.10
62544;BME280;48597;49.030;1.822;2022-10-31T04:14:26;101109.44;;;20.00;53.98
62544;BME280;48597;49.030;1.822;2022-10-31T04:16:53;101116.59;;;19.99;53.86
62544;BME280;48597;49.030;1.822;2022-10-31T04:19:19;101113.94;;;19.99;53.94
62544;BME280;48597;49.030;1.822;2022-10-31T04:21:44;101119.44;;;19.98;53.95
62544;BME280;48597;49.030;1.822;2022-10-31T04:24:10;101119.44;;;19.98;54.09
62544;BME280;48597;49.030;1.822;2022-10-31T04:26:36;101127.28;;;19.99;54.15
62544;BME280;48597;49.030;1.822;2022-10-31T04:29:02;101118.44;;;19.99;53.99
62544;BME280;48597;49.030;1.822;2022-10-31T04:31:28;101121.94;;;19.99;53.93
62544;BME280;48597;49.030;1.822;2022-10-31T04:33:53;101114.94;;;19.98;53.96
62544;BME280;48597;49.030;1.822;2022-10-31T04:36:18;101113.94;;;19.99;54.01
62544;BME280;48597;49.030;1.822;2022-10-31T04:38:44;101111.41;;;19.98;54.07
62544;BME280;48597;49.030;1.822;2022-10-31T04:41:09;101114.09;;;19.98;53.97
62544;BME280;48597;49.030;1.822;2022-10-31T04:43:34;101115.94;;;19.97;53.75
62544;BME280;48597;49.030;1.822;2022-10-31T04:46:00;101117.75;;;19.97;53.90
62544;BME280;48597;49.030;1.822;2022-10-31T04:48:26;101107.06;;;19.97;54.05
62544;BME280;48597;49.030;1.822;2022-10-31T04:50:52;101107.06;;;19.97;53.80
62544;BME280;48597;49.030;1.822;2022-10-31T04:53:17;101112.41;;;19.97;54.02
62544;BME280;48597;49.030;1.822;2022-10-31T04:55:42;101108.75;;;19.98;54.10
62544;BME280;48597;49.030;1.822;2022-10-31T04:58:08;101101.72;;;19.97;54.07
62544;BME280;48597;49.030;1.822;2022-10-31T05:00:33;101100.75;;;19.98;54.03
62544;BME280;48597;49.030;1.822;2022-10-31T05:02:59;101092.84;;;19.96;53.93
62544;BME280;48597;49.030;1.822;2022-10-31T05:05:30;101099.91;;;19.97;54.03
62544;BME280;48597;49.030;1.822;2022-10-31T05:07:55;101089.34;;;19.96;54.05
62544;BME280;48597;49.030;1.822;2022-10-31T05:10:23;101084.00;;;19.96;54.18
62544;BME280;48597;49.030;1.822;2022-10-31T05:12:54;101082.16;;;19.96;54.18
62544;BME280;48597;49.030;1.822;2022-10-31T05:15:22;101073.31;;;19.96;54.13
62544;BME280;48597;49.030;1.822;2022-10-31T05:17:48;101073.19;;;19.97;53.97
62544;BME280;48597;49.030;1.822;2022-10-31T05:20:14;101062.34;;;19.99;53.94
62544;BME280;48597;49.030;1.822;2022-10-31T05:22:48;101072.75;;;20.02;54.08
62544;BME280;48597;49.030;1.822;2022-10-31T05:25:14;101064.56;;;20.03;54.18
62544;BME280;48597;49.030;1.822;2022-10-31T05:27:47;101063.44;;;20.06;53.96
62544;BME280;48597;49.030;1.822;2022-10-31T05:30:15;101059.78;;;20.07;54.32
62544;BME280;48597;49.030;1.822;2022-10-31T05:32:46;101054.16;;;20.10;54.27
62544;BME280;48597;49.030;1.822;2022-10-31T05:35:17;101040.63;;;20.11;54.25
62544;BME280;48597;49.030;1.822;2022-10-31T05:37:44;101029.94;;;20.11;54.22
62544;BME280;48597;49.030;1.822;2022-10-31T05:40:12;101026.16;;;20.14;54.28
62544;BME280;48597;49.030;1.822;2022-10-31T05:42:39;101019.81;;;20.15;54.25
62544;BME280;48597;49.030;1.822;2022-10-31T05:45:09;101025.03;;;20.17;54.18
62544;BME280;48597;49.030;1.822;2022-10-31T05:47:36;101026.88;;;20.16;54.00
62544;BME280;48597;49.030;1.822;2022-10-31T05:50:02;101025.88;;;20.17;54.24
62544;BME280;48597;49.030;1.822;2022-10-31T05:52:27;101025.72;;;20.19;54.17
62544;BME280;48597;49.030;1.822;2022-10-31T05:54:53;101023.19;;;20.17;54.26
62544;BME280;48597;49.030;1.822;2022-10-31T05:57:19;101022.91;;;20.20;53.94
62544;BME280;48597;49.030;1.822;2022-10-31T05:59:44;101021.19;;;20.19;53.93
62544;BME280;48597;49.030;1.822;2022-10-31T06:02:09;101026.41;;;20.21;53.79
62544;BME280;48597;49.030;1.822;2022-10-31T06:04:35;101029.94;;;20.21;53.85
62544;BME280;48597;49.030;1.822;2022-10-31T06:07:02;101024.59;;;20.21;53.91
62544;BME280;48597;49.030;1.822;2022-10-31T06:09:27;101023.75;;;20.21;53.94
62544;BME280;48597;49.030;1.822;2022-10-31T06:11:53;101014.91;;;20.20;54.15
62544;BME280;48597;49.030;1.822;2022-10-31T06:14:19;101027.25;;;20.21;53.98
62544;BME280;48597;49.030;1.822;2022-10-31T06:16:44;101022.91;;;20.20;54.15
62544;BME280;48597;49.030;1.822;2022-10-31T06:19:10;101021.91;;;20.21;54.09
62544;BME280;48597;49.030;1.822;2022-10-31T06:21:35;101028.25;;;20.20;54.19
62544;BME280;48597;49.030;1.822;2022-10-31T06:24:00;101013.19;;;20.19;54.14
62544;BME280;48597;49.030;1.822;2022-10-31T06:26:26;101019.38;;;20.20;54.13
62544;BME280;48597;49.030;1.822;2022-10-31T06:28:51;101019.38;;;20.20;54.07
62544;BME280;48597;49.030;1.822;2022-10-31T06:31:17;101015.88;;;20.19;54.29
62544;BME280;48597;49.030;1.822;2022-10-31T06:33:42;101017.69;;;20.19;54.06
62544;BME280;48597;49.030;1.822;2022-10-31T06:36:08;101015.03;;;20.19;54.14
62544;BME280;48597;49.030;1.822;2022-10-31T06:38:34;101022.19;;;20.18;54.48
62544;BME280;48597;49.030;1.822;2022-10-31T06:41:03;101019.53;;;20.18;54.28
62544;BME280;48597;49.030;1.822;2022-10-31T06:43:29;101016.84;;;20.18;54.18
62544;BME280;48597;49.030;1.822;2022-10-31T06:45:55;101014.19;;;20.18;54.36
62544;BME280;48597;49.030;1.822;2022-10-31T06:48:20;101014.19;;;20.18;54.26
62544;BME280;48597;49.030;1.822;2022-10-31T06:50:45;101008.84;;;20.18;54.28
62544;BME280;48597;49.030;1.822;2022-10-31T06:53:11;101011.34;;;20.20;54.47
62544;BME280;48597;49.030;1.822;2022-10-31T06:55:36;101015.88;;;20.19;54.31
62544;BME280;48597;49.030;1.822;2022-10-31T06:58:02;101013.19;;;20.19;54.43
62544;BME280;48597;49.030;1.822;2022-10-31T07:00:29;101008.84;;;20.18;54.39
62544;BME280;48597;49.030;1.822;2022-10-31T07:03:04;101004.34;;;20.19;54.32
62544;BME280;48597;49.030;1.822;2022-10-31T07:05:30;100993.66;;;20.19;54.37
62544;BME280;48597;49.030;1.822;2022-10-31T07:07:58;100991.97;;;20.18;54.32
62544;BME280;48597;49.030;1.822;2022-10-31T07:10:25;100985.63;;;20.19;54.45
62544;BME280;48597;49.030;1.822;2022-10-31T07:12:55;100983.78;;;20.19;54.48
62544;BME280;48597;49.030;1.822;2022-10-31T07:15:21;100985.63;;;20.19;54.46
62544;BME280;48597;49.030;1.822;2022-10-31T07:17:47;100982.97;;;20.19;54.39
62544;BME280;48597;49.030;1.822;2022-10-31T07:20:12;100980.28;;;20.19;54.63
62544;BME280;48597;49.030;1.822;2022-10-31T07:22:38;100985.63;;;20.19;54.48
62544;BME280;48597;49.030;1.822;2022-10-31T07:25:04;100984.78;;;20.18;54.13
62544;BME280;48597;49.030;1.822;2022-10-31T07:27:36;100982.97;;;20.19;54.28
62544;BME280;48597;49.030;1.822;2022-10-31T07:30:01;100974.81;;;20.20;54.24
62544;BME280;48597;49.030;1.822;2022-10-31T07:32:27;100968.59;;;20.20;54.65
62544;BME280;48597;49.030;1.822;2022-10-31T07:34:52;100967.75;;;20.19;54.35
62544;BME280;48597;49.030;1.822;2022-10-31T07:37:18;100969.47;;;20.20;54.36
62544;BME280;48597;49.030;1.822;2022-10-31T07:39:43;100975.78;;;20.19;54.40
62544;BME280;48597;49.030;1.822;2022-10-31T07:42:08;100973.09;;;20.19;54.12
62544;BME280;48597;49.030;1.822;2022-10-31T07:44:34;100972.28;;;20.19;54.29
62544;BME280;48597;49.030;1.822;2022-10-31T07:46:59;100974.94;;;20.19;54.16
62544;BME280;48597;49.030;1.822;2022-10-31T07:49:24;100968.75;;;20.18;54.16
62544;BME280;48597;49.030;1.822;2022-10-31T07:51:50;100970.59;;;20.18;54.06
62544;BME280;48597;49.030;1.822;2022-10-31T07:54:16;100972.44;;;20.17;54.47
62544;BME280;48597;49.030;1.822;2022-10-31T07:56:41;100967.22;;;20.16;54.61
62544;BME280;48597;49.030;1.822;2022-10-31T07:59:06;100962.75;;;20.16;54.58
62544;BME280;48597;49.030;1.822;2022-10-31T08:01:32;100952.91;;;20.17;54.52
62544;BME280;48597;49.030;1.822;2022-10-31T08:03:57;100943.03;;;20.17;54.56
62544;BME280;48597;49.030;1.822;2022-10-31T08:06:22;100958.06;;;20.18;54.79
62544;BME280;48597;49.030;1.822;2022-10-31T08:08:48;100941.38;;;20.16;54.65
62544;BME280;48597;49.030;1.822;2022-10-31T08:11:13;100939.38;;;20.18;54.60
62544;BME280;48597;49.030;1.822;2022-10-31T08:13:39;100935.03;;;20.17;54.53
62544;BME280;48597;49.030;1.822;2022-10-31T08:16:05;100941.03;;;20.19;54.72
62544;BME280;48597;49.030;1.822;2022-10-31T08:18:32;100931.19;;;20.20;54.71
62544;BME280;48597;49.030;1.822;2022-10-31T08:20:58;100929.38;;;20.20;55.21
62544;BME280;48597;49.030;1.822;2022-10-31T08:23:23;100936.41;;;20.21;55.16
62544;BME280;48597;49.030;1.822;2022-10-31T08:25:48;100929.22;;;20.22;54.81
62544;BME280;48597;49.030;1.822;2022-10-31T08:28:14;100923.88;;;20.22;54.68
62544;BME280;48597;49.030;1.822;2022-10-31T08:30:40;100921.22;;;20.22;54.85
62544;BME280;48597;49.030;1.822;2022-10-31T08:33:10;100926.56;;;20.22;54.78
62544;BME280;48597;49.030;1.822;2022-10-31T08:35:36;100923.19;;;20.20;54.95
62544;BME280;48597;49.030;1.822;2022-10-31T08:38:02;100914.03;;;20.22;55.40
62544;BME280;48597;49.030;1.822;2022-10-31T08:40:29;100906.84;;;20.23;55.60
62544;BME280;48597;49.030;1.822;2022-10-31T08:43:00;100916.53;;;20.24;55.48
62544;BME280;48597;49.030;1.822;2022-10-31T08:45:26;100904.88;;;20.25;55.59
62544;BME280;48597;49.030;1.822;2022-10-31T08:47:52;100904.72;;;20.26;55.46
62544;BME280;48597;49.030;1.822;2022-10-31T08:50:17;100903.88;;;20.26;55.19
62544;BME280;48597;49.030;1.822;2022-10-31T08:52:43;100892.19;;;20.27;55.94
62544;BME280;48597;49.030;1.822;2022-10-31T08:55:08;100885.00;;;20.27;55.85
62544;BME280;48597;49.030;1.822;2022-10-31T08:57:34;100889.53;;;20.27;55.56
62544;BME280;48597;49.030;1.822;2022-10-31T08:59:59;100881.38;;;20.28;55.50
62544;BME280;48597;49.030;1.822;2022-10-31T09:02:24;100870.81;;;20.27;55.46
62544;BME280;48597;49.030;1.822;2022-10-31T09:04:49;100861.66;;;20.29;55.71
62544;BME280;48597;49.030;1.822;2022-10-31T09:07:15;100853.50;;;20.31;55.47
62544;BME280;48597;49.030;1.822;2022-10-31T09:09:40;100857.00;;;20.31;55.40
62544;BME280;48597;49.030;1.822;2022-10-31T09:12:06;100842.66;;;20.32;55.24
62544;BME280;48597;49.030;1.822;2022-10-31T09:14:31;100836.47;;;20.32;55.22
62544;BME280;48597;49.030;1.822;2022-10-31T09:16:56;100839.16;;;20.32;55.24
62544;BME280;48597;49.030;1.822;2022-10-31T09:19:22;100830.44;;;20.30;55.39
62544;BME280;48597;49.030;1.822;2022-10-31T09:21:47;100827.59;;;20.31;55.02
62544;BME280;48597;49.030;1.822;2022-10-31T09:24:12;100820.59;;;20.30;55.17
62544;BME280;48597;49.030;1.822;2022-10-31T09:26:38;100822.25;;;20.31;54.92
62544;BME280;48597;49.030;1.822;2022-10-31T09:29:03;100823.25;;;20.30;54.96
62544;BME280;48597;49.030;1.822;2022-10-31T09:31:29;100817.78;;;20.32;54.88
62544;BME280;48597;49.030;1.822;2022-10-31T09:33:55;100805.38;;;20.31;55.15
62544;BME280;48597;49.030;1.822;2022-10-31T09:36:20;100796.41;;;20.32;54.93
62544;BME280;48597;49.030;1.822;2022-10-31T09:38:47;100796.41;;;20.32;55.11
62544;BME280;48597;49.030;1.822;2022-10-31T09:44:03;100787.50;;;20.31;55.01
62544;BME280;48597;49.030;1.822;2022-10-31T09:46:51;100789.88;;;20.34;54.91
62544;BME280;48597;49.030;1.822;2022-10-31T09:52:26;100772.19;;;20.33;55.13
62544;BME280;48597;49.030;1.822;2022-10-31T09:55:05;100773.00;;;20.34;55.20
62544;BME280;48597;49.030;1.822;2022-10-31T09:57:37;100768.50;;;20.34;55.17
62544;BME280;48597;49.030;1.822;2022-10-31T10:00:05;100767.66;;;20.34;55.15
62544;BME280;48597;49.030;1.822;2022-10-31T10:02:56;100765.84;;;20.34;55.07
62544;BME280;48597;49.030;1.822;2022-10-31T10:05:49;100755.16;;;20.34;55.21
62544;BME280;48597;49.030;1.822;2022-10-31T10:08:25;100743.44;;;20.35;55.18
62544;BME280;48597;49.030;1.822;2022-10-31T10:25:16;100736.13;;;20.38;54.74
62544;BME280;48597;49.030;1.822;2022-10-31T10:30:17;100731.78;;;20.37;55.20
62544;BME280;48597;49.030;1.822;2022-10-31T10:32:47;100726.28;;;20.38;55.13
62544;BME280;48597;49.030;1.822;2022-10-31T10:35:27;100719.09;;;20.39;55.25
62544;BME280;48597;49.030;1.822;2022-10-31T10:40:52;100700.38;;;20.39;55.58
62544;BME280;48597;49.030;1.822;2022-10-31T10:43:34;100702.09;;;20.40;55.24
62544;BME280;48597;49.030;1.822;2022-10-31T10:51:37;100688.72;;;20.40;55.61
62544;BME280;48597;49.030;1.822;2022-10-31T10:57:04;100668.00;;;20.42;55.30
62544;BME280;48597;49.030;1.822;2022-10-31T10:59:31;100663.50;;;20.42;55.45
62544;BME280;48597;49.030;1.822;2022-10-31T11:01:58;100647.47;;;20.42;55.63
62544;BME280;48597;49.030;1.822;2022-10-31T11:04:28;100650.97;;;20.43;55.19
62544;BME280;48597;49.030;1.822;2022-10-31T11:07:05;100634.94;;;20.43;55.17
62544;BME280;48597;49.030;1.822;2022-10-31T11:09:32;100641.09;;;20.43;55.13
62544;BME280;48597;49.030;1.822;2022-10-31T11:11:58;100623.25;;;20.44;55.19
62544;BME280;48597;49.030;1.822;2022-10-31T11:14:26;100620.59;;;20.44;55.14
62544;BME280;48597;49.030;1.822;2022-10-31T11:17:06;100617.91;;;20.44;55.10
62544;BME280;48597;49.030;1.822;2022-10-31T11:19:33;100609.91;;;20.44;55.05
62544;BME280;48597;49.030;1.822;2022-10-31T11:22:15;100590.31;;;20.43;55.08
62544;BME280;48597;49.030;1.822;2022-10-31T11:24:43;100583.19;;;20.44;55.13
62544;BME280;48597;49.030;1.822;2022-10-31T11:27:35;100573.16;;;20.46;54.99
62544;BME280;48597;49.030;1.822;2022-10-31T11:30:05;100571.31;;;20.46;55.12
62544;BME280;48597;49.030;1.822;2022-10-31T11:32:31;100564.13;;;20.47;54.98
62544;BME280;48597;49.030;1.822;2022-10-31T11:35:00;100558.78;;;20.47;55.27
62544;BME280;48597;49.030;1.822;2022-10-31T11:37:29;100568.63;;;20.46;55.32
62544;BME280;48597;49.030;1.822;2022-10-31T11:40:01;100566.78;;;20.47;55.25
62544;BME280;48597;49.030;1.822;2022-10-31T11:42:34;100563.28;;;20.46;55.27
62544;BME280;48597;49.030;1.822;2022-10-31T11:45:12;100559.59;;;20.47;55.26
62544;BME280;48597;49.030;1.822;2022-10-31T11:47:42;100555.97;;;20.48;55.39
62544;BME280;48597;49.030;1.822;2022-10-31T11:50:10;100551.47;;;20.49;55.19
62544;BME280;48597;49.030;1.822;2022-10-31T11:52:39;100538.94;;;20.49;55.13
62544;BME280;48597;49.030;1.822;2022-10-31T11:57:45;100532.59;;;20.50;55.34
62544;BME280;48597;49.030;1.822;2022-10-31T12:00:29;100541.44;;;20.51;55.30
62544;BME280;48597;49.030;1.822;2022-10-31T12:08:25;100522.59;;;20.52;55.36
62544;BME280;48597;49.030;1.822;2022-10-31T12:11:25;100517.06;;;20.54;55.26
62544;BME280;48597;49.030;1.822;2022-10-31T12:16:26;100523.25;;;20.54;55.59
62544;BME280;48597;49.030;1.822;2022-10-31T12:19:11;100533.94;;;20.54;55.29
62544;BME280;48597;49.030;1.822;2022-10-31T12:22:04;100514.41;;;20.54;55.53
62544;BME280;48597;49.030;1.822;2022-10-31T12:30:21;100498.03;;;20.57;55.19
62544;BME280;48597;49.030;1.822;2022-10-31T12:40:53;100479.00;;;20.60;55.27
62544;BME280;48597;49.030;1.822;2022-10-31T12:43:45;100472.66;;;20.61;55.54
62544;BME280;48597;49.030;1.822;2022-10-31T12:51:50;100456.94;;;20.66;55.34
62544;BME280;48597;49.030;1.822;2022-10-31T12:54:47;100444.28;;;20.68;55.37
62544;BME280;48597;49.030;1.822;2022-10-31T12:57:30;100449.94;;;20.73;55.11
62544;BME280;48597;49.030;1.822;2022-10-31T13:00:02;100436.91;;;20.87;54.76
62544;BME280;48597;49.030;1.822;2022-10-31T13:03:09;100435.28;;;21.18;53.88
62544;BME280;48597;49.030;1.822;2022-10-31T13:05:36;100423.88;;;21.41;53.24
62544;BME280;48597;49.030;1.822;2022-10-31T13:08:10;100407.16;;;21.47;53.21
62544;BME280;48597;49.030;1.822;2022-10-31T13:10:43;100411.19;;;21.43;53.23
62544;BME280;48597;49.030;1.822;2022-10-31T13:15:56;100407.66;;;21.09;54.21
62544;BME280;48597;49.030;1.822;2022-10-31T13:18:39;100410.34;;;20.93;54.89
62544;BME280;48597;49.030;1.822;2022-10-31T13:21:12;100402.16;;;20.87;55.32
62544;BME280;48597;49.030;1.822;2022-10-31T13:23:43;100409.69;;;20.83;55.54
62544;BME280;48597;49.030;1.822;2022-10-31T13:27:02;100389.47;;;20.80;55.61
62544;BME280;48597;49.030;1.822;2022-10-31T13:31:32;100383.78;;;20.75;55.69
62544;BME280;48597;49.030;1.822;2022-10-31T13:34:16;100386.28;;;20.77;55.55
62544;BME280;48597;49.030;1.822;2022-10-31T13:36:51;100375.75;;;20.75;55.71
62544;BME280;48597;49.030;1.822;2022-10-31T13:39:41;100366.03;;;20.74;55.81
62544;BME280;48597;49.030;1.822;2022-10-31T13:42:18;100369.56;;;20.75;55.93
62544;BME280;48597;49.030;1.822;2022-10-31T13:44:44;100358.03;;;20.74;55.92
62544;BME280;48597;49.030;1.822;2022-10-31T13:49:46;100344.66;;;20.74;56.29
62544;BME280;48597;49.030;1.822;2022-10-31T13:59:55;100326.94;;;20.73;55.97
62544;BME280;48597;49.030;1.822;2022-10-31T14:02:30;100319.75;;;20.74;55.94
62544;BME280;48597;49.030;1.822;2022-10-31T14:07:44;100309.88;;;20.74;56.16
62544;BME280;48597;49.030;1.822;2022-10-31T14:10:30;100299.19;;;20.74;55.87
62544;BME280;48597;49.030;1.822;2022-10-31T14:13:07;100296.53;;;20.74;56.18
62544;BME280;48597;49.030;1.822;2022-10-31T14:15:42;100301.88;;;20.74;56.14
62544;BME280;48597;49.030;1.822;2022-10-31T14:18:22;100303.56;;;20.75;56.36
62544;BME280;48597;49.030;1.822;2022-10-31T14:20:48;100294.69;;;20.75;56.25
62544;BME280;48597;49.030;1.822;2022-10-31T14:28:34;100284.84;;;20.75;56.67
62544;BME280;48597;49.030;1.822;2022-10-31T14:31:01;100286.50;;;20.76;56.17
62544;BME280;48597;49.030;1.822;2022-10-31T14:33:28;100286.50;;;20.76;56.45
62544;BME280;48597;49.030;1.822;2022-10-31T14:39:16;100281.16;;;20.76;56.64
62544;BME280;48597;49.030;1.822;2022-10-31T14:48:11;100285.69;;;20.76;56.37
62544;BME280;48597;49.030;1.822;2022-10-31T14:50:47;100276.81;;;20.75;56.30
62544;BME280;48597;49.030;1.822;2022-10-31T14:53:40;100288.50;;;20.74;56.04
62544;BME280;48597;49.030;1.822;2022-10-31T14:56:10;100283.97;;;20.75;56.13
62544;BME280;48597;49.030;1.822;2022-10-31T14:58:47;100281.31;;;20.75;56.21
62544;BME280;48597;49.030;1.822;2022-10-31T15:03:49;100278.50;;;20.76;56.12